首页
METAR-TAF:

METAR-TAF

机场 :

Marshalltown Municipal Airport

Marshalltown, 艾奥瓦州, 美国

纬度: 42-06-38N, 经度: 092-54-58W, 海拔: 296米

当前天气观测

该预报发布于19分钟前的23:53 UTC
风速4节,风向
温度 24°C
湿度 54%
气压 1015 hPa
能見度: 16.1公里
天空无云

METAR: KMIW 262353Z AUTO 10004KT 10SM CLR 24/14 A2998 RMK AO2 SLP149 T02440139 10256 20217 56022

时间: 19:12 (00:12 UTC)


TAF: 丢失

超过4000个机场的气象观测和天气预报(METAR&TAF报告)。

可查询的气象台以黄色和红色小点在地图上表示。

将鼠标移到小点上方,可查看气象台名称。

然后点击查看天气观测和预报。

如需切换地图:点击带黑十字的绿色按钮放大地图;点击带横线的绿色按钮缩小地图;或者点击绿色箭头查看邻近地区的地图。


METAR-TAF: